sensor_id;sensor_type;location;lat;lon;timestamp;P1;durP1;ratioP1;P2;durP2;ratioP2
4448;SDS011;2237;51.870;6.160;2022-12-15T00:01:06;15.30;;;6.55;;
4448;SDS011;2237;51.870;6.160;2022-12-15T00:03:51;19.85;;;7.13;;
4448;SDS011;2237;51.870;6.160;2022-12-15T00:06:36;16.00;;;6.53;;
4448;SDS011;2237;51.870;6.160;2022-12-15T00:09:21;14.30;;;6.22;;
4448;SDS011;2237;51.870;6.160;2022-12-15T00:12:06;21.33;;;7.25;;
4448;SDS011;2237;51.870;6.160;2022-12-15T00:14:50;15.63;;;6.20;;
4448;SDS011;2237;51.870;6.160;2022-12-15T00:17:35;16.58;;;6.35;;
4448;SDS011;2237;51.870;6.160;2022-12-15T00:20:20;19.95;;;7.57;;
4448;SDS011;2237;51.870;6.160;2022-12-15T00:23:05;17.42;;;6.63;;
4448;SDS011;2237;51.870;6.160;2022-12-15T00:25:55;17.95;;;6.72;;
4448;SDS011;2237;51.870;6.160;2022-12-15T00:28:40;15.98;;;6.65;;
4448;SDS011;2237;51.870;6.160;2022-12-15T00:31:25;14.63;;;6.60;;
4448;SDS011;2237;51.870;6.160;2022-12-15T00:34:11;18.65;;;6.57;;
4448;SDS011;2237;51.870;6.160;2022-12-15T00:36:56;16.88;;;6.53;;
4448;SDS011;2237;51.870;6.160;2022-12-15T00:39:41;12.40;;;6.32;;
4448;SDS011;2237;51.870;6.160;2022-12-15T00:42:08;14.73;;;5.95;;
4448;SDS011;2237;51.870;6.160;2022-12-15T00:44:35;17.08;;;5.90;;
4448;SDS011;2237;51.870;6.160;2022-12-15T00:47:04;11.48;;;5.82;;
4448;SDS011;2237;51.870;6.160;2022-12-15T00:49:31;17.83;;;6.35;;
4448;SDS011;2237;51.870;6.160;2022-12-15T00:52:16;14.32;;;6.13;;
4448;SDS011;2237;51.870;6.160;2022-12-15T00:55:03;14.32;;;5.63;;
4448;SDS011;2237;51.870;6.160;2022-12-15T00:57:48;11.75;;;4.93;;
4448;SDS011;2237;51.870;6.160;2022-12-15T01:00:33;12.82;;;5.50;;
4448;SDS011;2237;51.870;6.160;2022-12-15T01:03:19;15.55;;;6.03;;
4448;SDS011;2237;51.870;6.160;2022-12-15T01:06:07;13.50;;;5.63;;
4448;SDS011;2237;51.870;6.160;2022-12-15T01:08:56;17.67;;;6.10;;
4448;SDS011;2237;51.870;6.160;2022-12-15T01:11:42;14.40;;;5.82;;
4448;SDS011;2237;51.870;6.160;2022-12-15T01:14:28;13.13;;;5.25;;
4448;SDS011;2237;51.870;6.160;2022-12-15T01:17:14;16.95;;;5.80;;
4448;SDS011;2237;51.870;6.160;2022-12-15T01:20:00;11.77;;;5.28;;
4448;SDS011;2237;51.870;6.160;2022-12-15T01:22:50;14.55;;;6.28;;
4448;SDS011;2237;51.870;6.160;2022-12-15T01:25:19;14.40;;;5.90;;
4448;SDS011;2237;51.870;6.160;2022-12-15T01:27:47;18.33;;;6.47;;
4448;SDS011;2237;51.870;6.160;2022-12-15T01:30:16;10.82;;;5.00;;
4448;SDS011;2237;51.870;6.160;2022-12-15T01:32:44;15.15;;;5.93;;
4448;SDS011;2237;51.870;6.160;2022-12-15T01:35:11;16.33;;;6.18;;
4448;SDS011;2237;51.870;6.160;2022-12-15T01:37:38;15.52;;;6.13;;
4448;SDS011;2237;51.870;6.160;2022-12-15T01:40:05;19.85;;;6.75;;
4448;SDS011;2237;51.870;6.160;2022-12-15T01:42:51;13.18;;;5.80;;
4448;SDS011;2237;51.870;6.160;2022-12-15T01:47:50;13.20;;;5.85;;
4448;SDS011;2237;51.870;6.160;2022-12-15T01:50:18;22.65;;;6.55;;
4448;SDS011;2237;51.870;6.160;2022-12-15T01:52:45;17.33;;;6.45;;
4448;SDS011;2237;51.870;6.160;2022-12-15T01:55:15;19.02;;;7.20;;
4448;SDS011;2237;51.870;6.160;2022-12-15T01:57:44;16.33;;;6.55;;
4448;SDS011;2237;51.870;6.160;2022-12-15T02:00:12;17.10;;;6.45;;
4448;SDS011;2237;51.870;6.160;2022-12-15T02:02:39;18.00;;;6.70;;
4448;SDS011;2237;51.870;6.160;2022-12-15T02:05:07;16.02;;;6.75;;
4448;SDS011;2237;51.870;6.160;2022-12-15T02:07:34;16.58;;;6.82;;
4448;SDS011;2237;51.870;6.160;2022-12-15T02:10:01;15.82;;;6.38;;
4448;SDS011;2237;51.870;6.160;2022-12-15T02:12:34;15.98;;;7.07;;
4448;SDS011;2237;51.870;6.160;2022-12-15T02:15:18;15.27;;;6.45;;
4448;SDS011;2237;51.870;6.160;2022-12-15T02:18:11;18.83;;;6.97;;
4448;SDS011;2237;51.870;6.160;2022-12-15T02:21:09;21.52;;;7.07;;
4448;SDS011;2237;51.870;6.160;2022-12-15T02:32:13;15.50;;;6.85;;
4448;SDS011;2237;51.870;6.160;2022-12-15T02:35:02;21.08;;;7.72;;
4448;SDS011;2237;51.870;6.160;2022-12-15T02:37:34;17.25;;;6.68;;
4448;SDS011;2237;51.870;6.160;2022-12-15T02:40:03;13.02;;;6.47;;
4448;SDS011;2237;51.870;6.160;2022-12-15T02:42:33;16.35;;;6.43;;
4448;SDS011;2237;51.870;6.160;2022-12-15T02:45:09;17.20;;;6.75;;
4448;SDS011;2237;51.870;6.160;2022-12-15T02:53:30;16.83;;;7.25;;
4448;SDS011;2237;51.870;6.160;2022-12-15T02:56:11;14.52;;;6.38;;
4448;SDS011;2237;51.870;6.160;2022-12-15T02:58:59;18.98;;;7.32;;
4448;SDS011;2237;51.870;6.160;2022-12-15T03:01:36;14.43;;;6.68;;
4448;SDS011;2237;51.870;6.160;2022-12-15T03:04:09;16.05;;;6.82;;
4448;SDS011;2237;51.870;6.160;2022-12-15T03:06:38;18.90;;;6.95;;
4448;SDS011;2237;51.870;6.160;2022-12-15T03:09:04;18.33;;;6.65;;
4448;SDS011;2237;51.870;6.160;2022-12-15T03:11:31;23.27;;;7.82;;
4448;SDS011;2237;51.870;6.160;2022-12-15T03:13:57;17.45;;;6.75;;
4448;SDS011;2237;51.870;6.160;2022-12-15T03:16:23;15.25;;;6.80;;
4448;SDS011;2237;51.870;6.160;2022-12-15T03:18:50;16.95;;;6.95;;
4448;SDS011;2237;51.870;6.160;2022-12-15T03:21:17;15.30;;;6.75;;
4448;SDS011;2237;51.870;6.160;2022-12-15T03:23:44;14.85;;;6.07;;
4448;SDS011;2237;51.870;6.160;2022-12-15T03:26:10;15.15;;;6.32;;
4448;SDS011;2237;51.870;6.160;2022-12-15T03:28:36;16.10;;;6.03;;
4448;SDS011;2237;51.870;6.160;2022-12-15T03:31:03;17.80;;;6.35;;
4448;SDS011;2237;51.870;6.160;2022-12-15T03:33:30;15.32;;;6.13;;
4448;SDS011;2237;51.870;6.160;2022-12-15T03:35:59;16.98;;;7.10;;
4448;SDS011;2237;51.870;6.160;2022-12-15T03:38:25;17.67;;;6.80;;
4448;SDS011;2237;51.870;6.160;2022-12-15T03:40:52;19.23;;;6.75;;
4448;SDS011;2237;51.870;6.160;2022-12-15T03:43:18;15.05;;;6.70;;
4448;SDS011;2237;51.870;6.160;2022-12-15T03:45:44;15.57;;;6.85;;
4448;SDS011;2237;51.870;6.160;2022-12-15T03:48:11;14.75;;;6.93;;
4448;SDS011;2237;51.870;6.160;2022-12-15T03:50:37;14.70;;;5.97;;
4448;SDS011;2237;51.870;6.160;2022-12-15T03:53:04;16.20;;;7.05;;
4448;SDS011;2237;51.870;6.160;2022-12-15T03:55:30;15.40;;;6.82;;
4448;SDS011;2237;51.870;6.160;2022-12-15T03:57:57;15.85;;;6.40;;
4448;SDS011;2237;51.870;6.160;2022-12-15T04:00:24;14.80;;;7.30;;
4448;SDS011;2237;51.870;6.160;2022-12-15T04:02:50;17.73;;;6.72;;
4448;SDS011;2237;51.870;6.160;2022-12-15T04:05:24;13.93;;;6.57;;
4448;SDS011;2237;51.870;6.160;2022-12-15T04:07:51;15.38;;;6.60;;
4448;SDS011;2237;51.870;6.160;2022-12-15T04:10:18;16.45;;;6.72;;
4448;SDS011;2237;51.870;6.160;2022-12-15T04:12:45;16.48;;;6.78;;
4448;SDS011;2237;51.870;6.160;2022-12-15T04:15:11;22.35;;;7.40;;
4448;SDS011;2237;51.870;6.160;2022-12-15T04:17:38;17.00;;;6.68;;
4448;SDS011;2237;51.870;6.160;2022-12-15T04:20:05;19.17;;;7.63;;
4448;SDS011;2237;51.870;6.160;2022-12-15T04:22:39;17.15;;;7.32;;
4448;SDS011;2237;51.870;6.160;2022-12-15T04:25:08;17.08;;;7.38;;
4448;SDS011;2237;51.870;6.160;2022-12-15T04:27:55;20.17;;;7.80;;
4448;SDS011;2237;51.870;6.160;2022-12-15T04:30:41;15.63;;;6.22;;
4448;SDS011;2237;51.870;6.160;2022-12-15T04:33:29;17.15;;;7.85;;
4448;SDS011;2237;51.870;6.160;2022-12-15T04:36:15;18.35;;;7.28;;
4448;SDS011;2237;51.870;6.160;2022-12-15T04:39:00;17.05;;;7.22;;
4448;SDS011;2237;51.870;6.160;2022-12-15T04:41:48;21.13;;;7.65;;
4448;SDS011;2237;51.870;6.160;2022-12-15T04:44:34;16.08;;;6.97;;
4448;SDS011;2237;51.870;6.160;2022-12-15T04:47:20;18.23;;;7.43;;
4448;SDS011;2237;51.870;6.160;2022-12-15T04:50:05;17.85;;;7.75;;
4448;SDS011;2237;51.870;6.160;2022-12-15T04:52:51;19.05;;;7.82;;
4448;SDS011;2237;51.870;6.160;2022-12-15T04:55:36;25.08;;;8.15;;
4448;SDS011;2237;51.870;6.160;2022-12-15T04:58:21;20.35;;;8.15;;
4448;SDS011;2237;51.870;6.160;2022-12-15T05:01:06;20.08;;;7.55;;
4448;SDS011;2237;51.870;6.160;2022-12-15T05:03:52;20.77;;;8.05;;
4448;SDS011;2237;51.870;6.160;2022-12-15T05:06:37;20.67;;;8.45;;
4448;SDS011;2237;51.870;6.160;2022-12-15T05:09:22;20.35;;;7.75;;
4448;SDS011;2237;51.870;6.160;2022-12-15T05:12:07;21.42;;;8.38;;
4448;SDS011;2237;51.870;6.160;2022-12-15T05:14:51;21.05;;;8.45;;
4448;SDS011;2237;51.870;6.160;2022-12-15T05:17:36;25.90;;;9.30;;
4448;SDS011;2237;51.870;6.160;2022-12-15T05:20:21;19.48;;;8.40;;
4448;SDS011;2237;51.870;6.160;2022-12-15T05:23:06;21.00;;;8.18;;
4448;SDS011;2237;51.870;6.160;2022-12-15T05:25:50;20.17;;;8.20;;
4448;SDS011;2237;51.870;6.160;2022-12-15T05:28:35;22.27;;;8.88;;
4448;SDS011;2237;51.870;6.160;2022-12-15T05:31:20;20.00;;;8.45;;
4448;SDS011;2237;51.870;6.160;2022-12-15T05:34:05;22.73;;;8.50;;
4448;SDS011;2237;51.870;6.160;2022-12-15T05:36:32;25.75;;;8.48;;
4448;SDS011;2237;51.870;6.160;2022-12-15T05:38:58;21.85;;;8.63;;
4448;SDS011;2237;51.870;6.160;2022-12-15T05:41:24;21.80;;;8.48;;
4448;SDS011;2237;51.870;6.160;2022-12-15T05:43:51;22.45;;;8.63;;
4448;SDS011;2237;51.870;6.160;2022-12-15T05:46:17;21.83;;;9.02;;
4448;SDS011;2237;51.870;6.160;2022-12-15T05:48:44;22.60;;;8.70;;
4448;SDS011;2237;51.870;6.160;2022-12-15T05:51:12;20.67;;;7.78;;
4448;SDS011;2237;51.870;6.160;2022-12-15T05:53:39;24.10;;;8.30;;
4448;SDS011;2237;51.870;6.160;2022-12-15T05:56:08;23.23;;;9.10;;
4448;SDS011;2237;51.870;6.160;2022-12-15T05:58:36;25.38;;;8.63;;
4448;SDS011;2237;51.870;6.160;2022-12-15T06:01:11;21.80;;;8.80;;
4448;SDS011;2237;51.870;6.160;2022-12-15T06:03:39;24.45;;;9.43;;
4448;SDS011;2237;51.870;6.160;2022-12-15T06:06:06;23.23;;;8.52;;
4448;SDS011;2237;51.870;6.160;2022-12-15T06:08:34;22.65;;;9.38;;
4448;SDS011;2237;51.870;6.160;2022-12-15T06:11:02;23.10;;;9.65;;
4448;SDS011;2237;51.870;6.160;2022-12-15T06:13:29;22.83;;;8.82;;
4448;SDS011;2237;51.870;6.160;2022-12-15T06:16:02;24.83;;;9.27;;
4448;SDS011;2237;51.870;6.160;2022-12-15T06:18:31;30.05;;;9.77;;
4448;SDS011;2237;51.870;6.160;2022-12-15T06:21:04;24.05;;;9.15;;
4448;SDS011;2237;51.870;6.160;2022-12-15T06:23:32;28.08;;;9.55;;
4448;SDS011;2237;51.870;6.160;2022-12-15T06:26:06;22.17;;;8.80;;
4448;SDS011;2237;51.870;6.160;2022-12-15T06:28:38;30.85;;;9.45;;
4448;SDS011;2237;51.870;6.160;2022-12-15T06:31:05;24.52;;;9.85;;
4448;SDS011;2237;51.870;6.160;2022-12-15T06:33:33;32.70;;;10.25;;
4448;SDS011;2237;51.870;6.160;2022-12-15T06:36:00;23.10;;;9.88;;
4448;SDS011;2237;51.870;6.160;2022-12-15T06:38:29;26.48;;;10.43;;
4448;SDS011;2237;51.870;6.160;2022-12-15T06:40:56;24.90;;;9.38;;
4448;SDS011;2237;51.870;6.160;2022-12-15T06:43:24;26.58;;;10.05;;
4448;SDS011;2237;51.870;6.160;2022-12-15T06:45:51;25.98;;;9.93;;
4448;SDS011;2237;51.870;6.160;2022-12-15T06:48:18;26.20;;;10.00;;
4448;SDS011;2237;51.870;6.160;2022-12-15T06:50:45;23.33;;;10.00;;
4448;SDS011;2237;51.870;6.160;2022-12-15T06:53:15;23.98;;;10.13;;
4448;SDS011;2237;51.870;6.160;2022-12-15T06:55:43;31.95;;;10.65;;
4448;SDS011;2237;51.870;6.160;2022-12-15T06:58:11;25.08;;;9.77;;
4448;SDS011;2237;51.870;6.160;2022-12-15T07:00:38;30.02;;;11.07;;
4448;SDS011;2237;51.870;6.160;2022-12-15T07:03:08;34.22;;;10.85;;
4448;SDS011;2237;51.870;6.160;2022-12-15T07:05:38;27.48;;;10.52;;
4448;SDS011;2237;51.870;6.160;2022-12-15T07:08:04;22.80;;;9.85;;
4448;SDS011;2237;51.870;6.160;2022-12-15T07:10:30;24.60;;;10.50;;
4448;SDS011;2237;51.870;6.160;2022-12-15T07:12:57;23.23;;;10.35;;
4448;SDS011;2237;51.870;6.160;2022-12-15T07:15:23;23.27;;;10.27;;
4448;SDS011;2237;51.870;6.160;2022-12-15T07:17:52;24.33;;;9.90;;
4448;SDS011;2237;51.870;6.160;2022-12-15T07:20:20;21.42;;;10.52;;
4448;SDS011;2237;51.870;6.160;2022-12-15T07:22:53;24.38;;;10.77;;
4448;SDS011;2237;51.870;6.160;2022-12-15T07:25:20;27.02;;;10.68;;
4448;SDS011;2237;51.870;6.160;2022-12-15T07:27:47;24.40;;;9.43;;
4448;SDS011;2237;51.870;6.160;2022-12-15T07:30:14;23.92;;;9.27;;
4448;SDS011;2237;51.870;6.160;2022-12-15T07:32:41;27.00;;;10.45;;
4448;SDS011;2237;51.870;6.160;2022-12-15T07:35:15;30.33;;;10.85;;
4448;SDS011;2237;51.870;6.160;2022-12-15T07:37:41;24.65;;;10.35;;
4448;SDS011;2237;51.870;6.160;2022-12-15T07:40:08;29.00;;;11.57;;
4448;SDS011;2237;51.870;6.160;2022-12-15T07:42:35;30.30;;;11.80;;
4448;SDS011;2237;51.870;6.160;2022-12-15T07:45:02;25.77;;;11.15;;
4448;SDS011;2237;51.870;6.160;2022-12-15T07:47:30;27.83;;;10.60;;
4448;SDS011;2237;51.870;6.160;2022-12-15T07:49:57;29.33;;;11.10;;
4448;SDS011;2237;51.870;6.160;2022-12-15T07:52:23;29.38;;;11.48;;
4448;SDS011;2237;51.870;6.160;2022-12-15T07:54:50;23.10;;;10.00;;
4448;SDS011;2237;51.870;6.160;2022-12-15T07:57:16;28.13;;;11.43;;
4448;SDS011;2237;51.870;6.160;2022-12-15T07:59:43;28.92;;;11.88;;
4448;SDS011;2237;51.870;6.160;2022-12-15T08:02:10;31.60;;;12.60;;
4448;SDS011;2237;51.870;6.160;2022-12-15T08:04:38;27.58;;;10.77;;
4448;SDS011;2237;51.870;6.160;2022-12-15T08:07:05;28.13;;;11.65;;
4448;SDS011;2237;51.870;6.160;2022-12-15T08:09:32;34.42;;;12.40;;
4448;SDS011;2237;51.870;6.160;2022-12-15T08:11:58;33.25;;;12.38;;
4448;SDS011;2237;51.870;6.160;2022-12-15T08:14:24;30.42;;;12.38;;
4448;SDS011;2237;51.870;6.160;2022-12-15T08:16:51;35.33;;;14.40;;
4448;SDS011;2237;51.870;6.160;2022-12-15T08:19:17;37.45;;;15.70;;
4448;SDS011;2237;51.870;6.160;2022-12-15T08:21:44;114.13;;;38.60;;
4448;SDS011;2237;51.870;6.160;2022-12-15T08:24:12;55.30;;;21.73;;
4448;SDS011;2237;51.870;6.160;2022-12-15T08:26:42;51.13;;;19.50;;
4448;SDS011;2237;51.870;6.160;2022-12-15T08:29:15;39.75;;;15.45;;
4448;SDS011;2237;51.870;6.160;2022-12-15T08:32:01;33.47;;;13.52;;
4448;SDS011;2237;51.870;6.160;2022-12-15T08:34:28;38.53;;;13.75;;
4448;SDS011;2237;51.870;6.160;2022-12-15T08:36:54;38.63;;;15.48;;
4448;SDS011;2237;51.870;6.160;2022-12-15T08:39:20;47.10;;;19.40;;
4448;SDS011;2237;51.870;6.160;2022-12-15T08:41:47;39.92;;;14.75;;
4448;SDS011;2237;51.870;6.160;2022-12-15T08:44:14;36.42;;;13.18;;
4448;SDS011;2237;51.870;6.160;2022-12-15T08:46:42;31.42;;;13.00;;
4448;SDS011;2237;51.870;6.160;2022-12-15T08:49:08;37.97;;;12.38;;
4448;SDS011;2237;51.870;6.160;2022-12-15T08:51:34;37.47;;;15.43;;
4448;SDS011;2237;51.870;6.160;2022-12-15T08:54:01;28.45;;;11.02;;
4448;SDS011;2237;51.870;6.160;2022-12-15T08:56:28;23.67;;;9.98;;
4448;SDS011;2237;51.870;6.160;2022-12-15T08:58:56;31.55;;;12.75;;
4448;SDS011;2237;51.870;6.160;2022-12-15T09:01:24;33.95;;;13.82;;
4448;SDS011;2237;51.870;6.160;2022-12-15T09:03:52;28.25;;;11.23;;
4448;SDS011;2237;51.870;6.160;2022-12-15T09:06:21;30.38;;;12.75;;
4448;SDS011;2237;51.870;6.160;2022-12-15T09:08:52;30.20;;;11.80;;
4448;SDS011;2237;51.870;6.160;2022-12-15T09:11:23;31.55;;;13.23;;
4448;SDS011;2237;51.870;6.160;2022-12-15T09:13:50;32.80;;;13.60;;
4448;SDS011;2237;51.870;6.160;2022-12-15T09:16:17;32.38;;;13.65;;
4448;SDS011;2237;51.870;6.160;2022-12-15T09:18:46;27.42;;;12.48;;
4448;SDS011;2237;51.870;6.160;2022-12-15T09:21:15;34.28;;;13.15;;
4448;SDS011;2237;51.870;6.160;2022-12-15T09:23:46;30.80;;;13.82;;
4448;SDS011;2237;51.870;6.160;2022-12-15T09:26:13;34.28;;;13.38;;
4448;SDS011;2237;51.870;6.160;2022-12-15T09:28:40;29.88;;;12.70;;
4448;SDS011;2237;51.870;6.160;2022-12-15T09:31:20;39.33;;;13.27;;
4448;SDS011;2237;51.870;6.160;2022-12-15T09:33:58;23.35;;;9.90;;
4448;SDS011;2237;51.870;6.160;2022-12-15T09:36:25;33.05;;;13.43;;
4448;SDS011;2237;51.870;6.160;2022-12-15T09:38:53;30.60;;;13.63;;
4448;SDS011;2237;51.870;6.160;2022-12-15T09:41:24;31.90;;;13.18;;
4448;SDS011;2237;51.870;6.160;2022-12-15T09:49:12;41.15;;;14.52;;
4448;SDS011;2237;51.870;6.160;2022-12-15T09:52:09;33.45;;;13.20;;
4448;SDS011;2237;51.870;6.160;2022-12-15T09:54:37;34.33;;;13.50;;
4448;SDS011;2237;51.870;6.160;2022-12-15T09:57:09;31.65;;;12.18;;
4448;SDS011;2237;51.870;6.160;2022-12-15T09:59:49;24.48;;;11.23;;
4448;SDS011;2237;51.870;6.160;2022-12-15T10:08:42;27.63;;;12.45;;
4448;SDS011;2237;51.870;6.160;2022-12-15T10:13:50;36.65;;;15.43;;
4448;SDS011;2237;51.870;6.160;2022-12-15T10:16:32;35.85;;;15.77;;
4448;SDS011;2237;51.870;6.160;2022-12-15T10:21:34;29.10;;;12.80;;
4448;SDS011;2237;51.870;6.160;2022-12-15T10:24:08;35.75;;;13.75;;
4448;SDS011;2237;51.870;6.160;2022-12-15T10:26:53;33.40;;;14.15;;
4448;SDS011;2237;51.870;6.160;2022-12-15T10:29:30;32.95;;;14.27;;
4448;SDS011;2237;51.870;6.160;2022-12-15T10:32:03;35.80;;;15.30;;
4448;SDS011;2237;51.870;6.160;2022-12-15T10:34:41;32.10;;;13.88;;
4448;SDS011;2237;51.870;6.160;2022-12-15T10:37:18;31.92;;;13.88;;
4448;SDS011;2237;51.870;6.160;2022-12-15T10:39:46;32.00;;;13.35;;
4448;SDS011;2237;51.870;6.160;2022-12-15T10:44:50;31.25;;;14.27;;
4448;SDS011;2237;51.870;6.160;2022-12-15T10:49:48;38.13;;;15.15;;
4448;SDS011;2237;51.870;6.160;2022-12-15T10:52:20;34.55;;;14.65;;
4448;SDS011;2237;51.870;6.160;2022-12-15T10:54:50;40.85;;;15.68;;
4448;SDS011;2237;51.870;6.160;2022-12-15T10:57:20;32.70;;;14.57;;
4448;SDS011;2237;51.870;6.160;2022-12-15T10:59:53;44.00;;;16.05;;
4448;SDS011;2237;51.870;6.160;2022-12-15T11:04:54;42.47;;;17.83;;
4448;SDS011;2237;51.870;6.160;2022-12-15T11:07:22;36.60;;;16.17;;
4448;SDS011;2237;51.870;6.160;2022-12-15T11:09:53;32.72;;;14.98;;
4448;SDS011;2237;51.870;6.160;2022-12-15T11:12:25;36.70;;;16.40;;
4448;SDS011;2237;51.870;6.160;2022-12-15T11:18:12;46.92;;;17.00;;
4448;SDS011;2237;51.870;6.160;2022-12-15T11:20:42;36.08;;;16.02;;
4448;SDS011;2237;51.870;6.160;2022-12-15T11:23:18;37.28;;;15.80;;
4448;SDS011;2237;51.870;6.160;2022-12-15T11:25:54;42.40;;;15.70;;
4448;SDS011;2237;51.870;6.160;2022-12-15T11:28:53;45.60;;;19.15;;
4448;SDS011;2237;51.870;6.160;2022-12-15T11:31:31;38.40;;;17.35;;
4448;SDS011;2237;51.870;6.160;2022-12-15T11:34:02;34.85;;;14.38;;
4448;SDS011;2237;51.870;6.160;2022-12-15T11:39:28;40.55;;;16.75;;
4448;SDS011;2237;51.870;6.160;2022-12-15T11:42:11;37.22;;;17.48;;
4448;SDS011;2237;51.870;6.160;2022-12-15T11:45:12;39.42;;;17.08;;
4448;SDS011;2237;51.870;6.160;2022-12-15T11:47:42;44.72;;;18.17;;
4448;SDS011;2237;51.870;6.160;2022-12-15T11:53:01;44.47;;;16.42;;
4448;SDS011;2237;51.870;6.160;2022-12-15T11:55:42;46.70;;;20.80;;
4448;SDS011;2237;51.870;6.160;2022-12-15T11:58:19;51.28;;;17.17;;
4448;SDS011;2237;51.870;6.160;2022-12-15T12:11:22;43.40;;;18.67;;
4448;SDS011;2237;51.870;6.160;2022-12-15T12:19:31;40.70;;;16.75;;
4448;SDS011;2237;51.870;6.160;2022-12-15T12:22:08;37.90;;;17.02;;
4448;SDS011;2237;51.870;6.160;2022-12-15T12:25:07;32.58;;;14.77;;
4448;SDS011;2237;51.870;6.160;2022-12-15T12:27:46;39.00;;;14.68;;
4448;SDS011;2237;51.870;6.160;2022-12-15T12:30:23;35.65;;;15.38;;
4448;SDS011;2237;51.870;6.160;2022-12-15T12:35:38;47.47;;;17.73;;
4448;SDS011;2237;51.870;6.160;2022-12-15T12:38:11;40.25;;;15.27;;
4448;SDS011;2237;51.870;6.160;2022-12-15T12:43:33;44.38;;;17.02;;
4448;SDS011;2237;51.870;6.160;2022-12-15T12:48:40;34.80;;;16.10;;
4448;SDS011;2237;51.870;6.160;2022-12-15T12:51:33;35.47;;;14.00;;
4448;SDS011;2237;51.870;6.160;2022-12-15T12:54:09;42.30;;;16.83;;
4448;SDS011;2237;51.870;6.160;2022-12-15T12:57:27;40.00;;;16.55;;
4448;SDS011;2237;51.870;6.160;2022-12-15T12:59:56;29.63;;;13.35;;
4448;SDS011;2237;51.870;6.160;2022-12-15T13:15:37;29.83;;;14.80;;
4448;SDS011;2237;51.870;6.160;2022-12-15T13:18:17;35.33;;;16.80;;
4448;SDS011;2237;51.870;6.160;2022-12-15T13:20:47;36.33;;;17.50;;
4448;SDS011;2237;51.870;6.160;2022-12-15T13:41:37;24.58;;;13.05;;
4448;SDS011;2237;51.870;6.160;2022-12-15T13:44:34;28.00;;;13.77;;
4448;SDS011;2237;51.870;6.160;2022-12-15T13:47:05;63.22;;;37.58;;
4448;SDS011;2237;51.870;6.160;2022-12-15T13:49:41;32.15;;;18.20;;
4448;SDS011;2237;51.870;6.160;2022-12-15T13:55:17;27.58;;;15.10;;
4448;SDS011;2237;51.870;6.160;2022-12-15T13:57:53;28.40;;;14.63;;
4448;SDS011;2237;51.870;6.160;2022-12-15T14:00:23;27.83;;;15.02;;
4448;SDS011;2237;51.870;6.160;2022-12-15T14:02:49;32.72;;;16.58;;
4448;SDS011;2237;51.870;6.160;2022-12-15T14:05:17;34.25;;;15.90;;
4448;SDS011;2237;51.870;6.160;2022-12-15T14:13:08;32.03;;;15.40;;
4448;SDS011;2237;51.870;6.160;2022-12-15T14:15:43;36.42;;;17.67;;
4448;SDS011;2237;51.870;6.160;2022-12-15T14:18:34;29.83;;;15.10;;
4448;SDS011;2237;51.870;6.160;2022-12-15T14:21:16;32.28;;;14.48;;
4448;SDS011;2237;51.870;6.160;2022-12-15T14:23:45;28.77;;;13.95;;
4448;SDS011;2237;51.870;6.160;2022-12-15T14:26:32;35.95;;;17.13;;
4448;SDS011;2237;51.870;6.160;2022-12-15T14:28:59;31.50;;;15.43;;
4448;SDS011;2237;51.870;6.160;2022-12-15T14:31:28;32.38;;;15.18;;
4448;SDS011;2237;51.870;6.160;2022-12-15T14:33:59;37.33;;;17.52;;
4448;SDS011;2237;51.870;6.160;2022-12-15T14:36:31;38.22;;;17.67;;
4448;SDS011;2237;51.870;6.160;2022-12-15T14:38:59;33.63;;;15.52;;
4448;SDS011;2237;51.870;6.160;2022-12-15T14:41:34;32.72;;;16.27;;
4448;SDS011;2237;51.870;6.160;2022-12-15T14:44:04;35.30;;;16.92;;
4448;SDS011;2237;51.870;6.160;2022-12-15T14:47:01;33.10;;;15.32;;
4448;SDS011;2237;51.870;6.160;2022-12-15T14:49:31;31.80;;;15.93;;
4448;SDS011;2237;51.870;6.160;2022-12-15T14:52:05;32.80;;;15.80;;
4448;SDS011;2237;51.870;6.160;2022-12-15T14:54:57;35.17;;;15.45;;
4448;SDS011;2237;51.870;6.160;2022-12-15T14:57:39;31.20;;;14.68;;
4448;SDS011;2237;51.870;6.160;2022-12-15T15:00:29;35.47;;;16.65;;
4448;SDS011;2237;51.870;6.160;2022-12-15T15:05:52;38.72;;;16.40;;
4448;SDS011;2237;51.870;6.160;2022-12-15T15:08:26;40.00;;;18.10;;
4448;SDS011;2237;51.870;6.160;2022-12-15T15:10:58;40.95;;;17.52;;
4448;SDS011;2237;51.870;6.160;2022-12-15T15:13:36;35.75;;;16.10;;
4448;SDS011;2237;51.870;6.160;2022-12-15T15:16:06;33.55;;;15.77;;
4448;SDS011;2237;51.870;6.160;2022-12-15T15:18:39;39.78;;;17.02;;
4448;SDS011;2237;51.870;6.160;2022-12-15T15:21:10;39.22;;;17.67;;
4448;SDS011;2237;51.870;6.160;2022-12-15T15:23:42;38.50;;;16.30;;
4448;SDS011;2237;51.870;6.160;2022-12-15T15:28:50;39.03;;;16.98;;
4448;SDS011;2237;51.870;6.160;2022-12-15T15:33:53;42.92;;;17.52;;
4448;SDS011;2237;51.870;6.160;2022-12-15T15:36:26;41.20;;;16.67;;
4448;SDS011;2237;51.870;6.160;2022-12-15T15:39:13;39.78;;;17.48;;
4448;SDS011;2237;51.870;6.160;2022-12-15T15:41:40;41.83;;;17.45;;
4448;SDS011;2237;51.870;6.160;2022-12-15T15:44:10;45.70;;;18.35;;
4448;SDS011;2237;51.870;6.160;2022-12-15T15:46:38;39.38;;;16.55;;
4448;SDS011;2237;51.870;6.160;2022-12-15T15:49:12;38.65;;;17.27;;
4448;SDS011;2237;51.870;6.160;2022-12-15T15:51:42;33.92;;;15.88;;
4448;SDS011;2237;51.870;6.160;2022-12-15T15:54:18;45.70;;;17.30;;
4448;SDS011;2237;51.870;6.160;2022-12-15T15:56:48;42.97;;;17.50;;
4448;SDS011;2237;51.870;6.160;2022-12-15T15:59:15;39.03;;;17.17;;
4448;SDS011;2237;51.870;6.160;2022-12-15T16:01:47;34.15;;;15.60;;
4448;SDS011;2237;51.870;6.160;2022-12-15T16:04:18;39.30;;;17.05;;
4448;SDS011;2237;51.870;6.160;2022-12-15T16:06:45;35.78;;;16.15;;
4448;SDS011;2237;51.870;6.160;2022-12-15T16:09:13;30.75;;;13.68;;
4448;SDS011;2237;51.870;6.160;2022-12-15T16:11:40;38.03;;;17.38;;
4448;SDS011;2237;51.870;6.160;2022-12-15T16:14:14;35.20;;;16.70;;
4448;SDS011;2237;51.870;6.160;2022-12-15T16:16:41;33.70;;;16.15;;
4448;SDS011;2237;51.870;6.160;2022-12-15T16:19:09;36.03;;;16.77;;
4448;SDS011;2237;51.870;6.160;2022-12-15T16:21:37;34.95;;;15.75;;
4448;SDS011;2237;51.870;6.160;2022-12-15T16:24:06;37.83;;;15.73;;
4448;SDS011;2237;51.870;6.160;2022-12-15T16:26:36;40.10;;;16.65;;
4448;SDS011;2237;51.870;6.160;2022-12-15T16:29:12;35.65;;;16.25;;
4448;SDS011;2237;51.870;6.160;2022-12-15T16:31:40;39.70;;;16.15;;
4448;SDS011;2237;51.870;6.160;2022-12-15T16:34:11;37.25;;;15.68;;
4448;SDS011;2237;51.870;6.160;2022-12-15T16:36:38;33.30;;;14.95;;
4448;SDS011;2237;51.870;6.160;2022-12-15T16:39:11;42.30;;;17.08;;
4448;SDS011;2237;51.870;6.160;2022-12-15T16:41:49;38.50;;;16.50;;
4448;SDS011;2237;51.870;6.160;2022-12-15T16:44:18;42.45;;;16.70;;
4448;SDS011;2237;51.870;6.160;2022-12-15T16:46:44;38.80;;;17.27;;
4448;SDS011;2237;51.870;6.160;2022-12-15T16:49:11;36.10;;;16.13;;
4448;SDS011;2237;51.870;6.160;2022-12-15T16:51:38;42.15;;;18.02;;
4448;SDS011;2237;51.870;6.160;2022-12-15T16:54:08;40.58;;;17.52;;
4448;SDS011;2237;51.870;6.160;2022-12-15T16:56:41;44.17;;;18.75;;
4448;SDS011;2237;51.870;6.160;2022-12-15T16:59:21;43.05;;;17.50;;
4448;SDS011;2237;51.870;6.160;2022-12-15T17:01:59;42.55;;;18.33;;
4448;SDS011;2237;51.870;6.160;2022-12-15T17:04:25;45.25;;;19.45;;
4448;SDS011;2237;51.870;6.160;2022-12-15T17:06:52;60.90;;;20.65;;
4448;SDS011;2237;51.870;6.160;2022-12-15T17:09:22;55.33;;;21.30;;
4448;SDS011;2237;51.870;6.160;2022-12-15T17:11:50;41.80;;;18.85;;
4448;SDS011;2237;51.870;6.160;2022-12-15T17:14:17;34.95;;;14.20;;
4448;SDS011;2237;51.870;6.160;2022-12-15T17:16:45;46.38;;;18.90;;
4448;SDS011;2237;51.870;6.160;2022-12-15T17:19:12;47.83;;;21.40;;
4448;SDS011;2237;51.870;6.160;2022-12-15T17:21:46;48.42;;;21.60;;
4448;SDS011;2237;51.870;6.160;2022-12-15T17:24:16;43.95;;;19.23;;
4448;SDS011;2237;51.870;6.160;2022-12-15T17:26:45;52.85;;;22.38;;
4448;SDS011;2237;51.870;6.160;2022-12-15T17:31:46;39.67;;;18.02;;
4448;SDS011;2237;51.870;6.160;2022-12-15T17:34:21;44.75;;;19.42;;